createdAt,value
2023-03-06T00:00:06.679Z,50.05
2023-03-06T00:02:09.208Z,46.78
2023-03-06T00:04:14.656Z,47.33
2023-03-06T00:06:17.227Z,51.20
2023-03-06T00:08:19.752Z,48.05
2023-03-06T00:10:25.061Z,55.58
2023-03-06T00:12:29.008Z,49.50
2023-03-06T00:14:31.552Z,48.35
2023-03-06T00:16:34.220Z,47.97
2023-03-06T00:18:36.779Z,45.58
2023-03-06T00:20:40.720Z,46.85
2023-03-06T00:22:43.497Z,46.42
2023-03-06T00:24:46.216Z,43.30
2023-03-06T00:26:48.771Z,43.80
2023-03-06T00:28:52.655Z,45.10
2023-03-06T00:30:55.208Z,47.92
2023-03-06T00:32:58.072Z,46.92
2023-03-06T00:35:00.611Z,45.63
2023-03-06T00:37:03.128Z,49.88
2023-03-06T00:39:05.838Z,48.95
2023-03-06T00:41:10.250Z,51.22
2023-03-06T00:43:12.835Z,45.50
2023-03-06T00:45:17.077Z,50.40
2023-03-06T00:47:19.665Z,48.60
2023-03-06T00:49:22.543Z,42.75
2023-03-06T00:51:25.129Z,43.38
2023-03-06T00:53:27.756Z,45.53
2023-03-06T00:55:31.110Z,45.65
2023-03-06T00:57:33.662Z,43.20
2023-03-06T00:59:36.325Z,43.38
2023-03-06T01:01:40.262Z,39.08
2023-03-06T01:03:42.816Z,39.20
2023-03-06T01:05:45.371Z,40.90
2023-03-06T01:07:47.922Z,37.17
2023-03-06T01:09:50.872Z,35.92
2023-03-06T01:11:53.515Z,42.63
2023-03-06T01:13:56.070Z,35.20
2023-03-06T01:16:07.645Z,35.97
2023-03-06T01:18:11.568Z,38.95
2023-03-06T01:20:15.678Z,37.35
2023-03-06T01:22:18.294Z,32.13
2023-03-06T01:24:20.807Z,38.83
2023-03-06T01:26:23.388Z,33.70
2023-03-06T01:28:26.260Z,33.72
2023-03-06T01:30:28.899Z,33.22
2023-03-06T01:32:33.747Z,38.50
2023-03-06T01:34:37.678Z,36.58
2023-03-06T01:36:40.292Z,34.42
2023-03-06T01:38:43.299Z,32.28
2023-03-06T01:40:46.453Z,35.72
2023-03-06T01:42:50.441Z,32.30
2023-03-06T01:45:00.894Z,37.30
2023-03-06T01:47:03.453Z,39.17
2023-03-06T01:49:12.280Z,32.08
2023-03-06T01:51:16.985Z,37.75
2023-03-06T01:53:21.108Z,36.47
2023-03-06T01:55:27.454Z,40.17
2023-03-06T01:57:33.596Z,41.25
2023-03-06T01:59:39.195Z,39.97
2023-03-06T02:01:42.656Z,39.65
2023-03-06T02:03:47.394Z,35.65
2023-03-06T02:05:50.021Z,38.17
2023-03-06T02:07:55.368Z,33.22
2023-03-06T02:09:58.077Z,33.08
2023-03-06T02:12:01.130Z,39.42
2023-03-06T02:14:04.037Z,37.53
2023-03-06T02:16:08.645Z,37.83
2023-03-06T02:18:11.213Z,33.38
2023-03-06T02:20:22.232Z,40.83
2023-03-06T02:22:30.974Z,35.70
2023-03-06T02:24:40.250Z,35.88
2023-03-06T02:26:45.517Z,39.47
2023-03-06T02:28:48.100Z,33.72
2023-03-06T02:30:53.400Z,39.22
2023-03-06T02:32:56.287Z,37.05
2023-03-06T02:34:59.233Z,41.63
2023-03-06T02:37:04.990Z,40.40
2023-03-06T02:39:07.840Z,35.80
2023-03-06T02:41:10.437Z,36.78
2023-03-06T02:43:17.396Z,35.97
2023-03-06T02:45:25.129Z,33.78
2023-03-06T02:47:27.682Z,36.80
2023-03-06T02:49:30.267Z,36.70
2023-03-06T02:51:32.872Z,38.83
2023-03-06T02:53:35.452Z,38.35
2023-03-06T02:55:38.266Z,36.42
2023-03-06T02:57:40.838Z,39.80
2023-03-06T02:59:44.776Z,41.17
2023-03-06T03:01:47.660Z,38.55
2023-03-06T03:03:50.345Z,42.65
2023-03-06T03:05:52.906Z,41.55
2023-03-06T03:07:55.479Z,48.03
2023-03-06T03:09:58.020Z,44.67
2023-03-06T03:12:00.552Z,42.13
2023-03-06T03:14:03.139Z,41.72
2023-03-06T03:16:09.094Z,40.92
2023-03-06T03:18:12.143Z,35.53
2023-03-06T03:20:18.315Z,43.10
2023-03-06T03:22:21.174Z,45.72
2023-03-06T03:24:23.833Z,38.25
2023-03-06T03:26:26.407Z,38.95
2023-03-06T03:28:28.998Z,40.28
2023-03-06T03:30:31.561Z,38.78
2023-03-06T03:32:35.517Z,40.58
2023-03-06T03:34:38.113Z,41.53
2023-03-06T03:36:40.908Z,39.63
2023-03-06T03:38:43.501Z,42.72
2023-03-06T03:40:46.024Z,40.28
2023-03-06T03:42:48.591Z,37.97
2023-03-06T03:44:51.172Z,39.17
2023-03-06T03:46:56.742Z,45.25
2023-03-06T03:49:00.686Z,40.45
2023-03-06T03:51:06.360Z,46.08
2023-03-06T03:53:08.907Z,47.38
2023-03-06T03:55:12.685Z,44.53
2023-03-06T03:57:15.218Z,45.10
2023-03-06T03:59:17.774Z,46.72
2023-03-06T04:01:20.322Z,46.10
2023-03-06T04:03:22.960Z,44.35
2023-03-06T04:05:26.860Z,47.58
2023-03-06T04:07:29.425Z,44.05
2023-03-06T04:09:31.957Z,41.28
2023-03-06T04:11:34.536Z,44.17
2023-03-06T04:13:37.094Z,45.10
2023-03-06T04:15:39.648Z,47.47
2023-03-06T04:17:42.253Z,41.63
2023-03-06T04:19:44.841Z,43.28
2023-03-06T04:21:48.723Z,39.03
2023-03-06T04:23:51.291Z,41.72
2023-03-06T04:25:53.804Z,42.63
2023-03-06T04:27:57.732Z,46.47
2023-03-06T04:30:00.332Z,41.83
2023-03-06T04:32:03.064Z,45.90
2023-03-06T04:34:05.750Z,42.00
2023-03-06T04:36:08.916Z,42.08
2023-03-06T04:38:12.896Z,43.83
2023-03-06T04:40:19.555Z,45.92
2023-03-06T04:42:22.312Z,45.25
2023-03-06T04:44:24.858Z,43.05
2023-03-06T04:46:27.529Z,42.78
2023-03-06T04:48:30.154Z,42.38
2023-03-06T04:50:32.941Z,39.30
2023-03-06T04:52:35.570Z,45.72
2023-03-06T04:54:39.452Z,44.28
2023-03-06T04:56:42.060Z,37.17
2023-03-06T04:58:45.225Z,41.55
2023-03-06T05:00:47.818Z,38.67
2023-03-06T05:02:51.276Z,42.00
2023-03-06T05:04:53.809Z,41.75
2023-03-06T05:06:56.346Z,41.45
2023-03-06T05:09:01.110Z,37.92
2023-03-06T05:11:05.542Z,39.95
2023-03-06T05:13:08.305Z,41.78
2023-03-06T05:15:13.160Z,43.95
2023-03-06T05:17:15.688Z,38.42
2023-03-06T05:19:18.267Z,40.60
2023-03-06T05:21:20.834Z,39.05
2023-03-06T05:23:23.391Z,37.45
2023-03-06T05:25:25.940Z,36.85
2023-03-06T05:27:29.928Z,37.47
2023-03-06T05:29:32.489Z,34.85
2023-03-06T05:31:35.049Z,34.25
2023-03-06T05:33:37.912Z,36.95
2023-03-06T05:35:40.507Z,39.38
2023-03-06T05:37:43.069Z,34.15
2023-03-06T05:39:45.683Z,29.38
2023-03-06T05:41:48.248Z,33.35
2023-03-06T05:43:53.839Z,35.78
2023-03-06T05:46:03.408Z,33.95
2023-03-06T05:48:06.621Z,31.30
2023-03-06T05:50:10.488Z,31.67
2023-03-06T05:52:14.866Z,31.42
2023-03-06T05:54:17.452Z,32.75
2023-03-06T05:56:21.724Z,34.60
2023-03-06T05:58:24.316Z,29.15
2023-03-06T06:00:28.301Z,34.72
2023-03-06T06:02:30.929Z,27.85
2023-03-06T06:04:33.693Z,30.48
2023-03-06T06:06:36.282Z,40.30
2023-03-06T06:08:39.258Z,33.80
2023-03-06T06:10:41.840Z,30.63
2023-03-06T06:12:44.514Z,34.65
2023-03-06T06:14:47.109Z,32.78
2023-03-06T06:16:51.471Z,36.13
2023-03-06T06:18:53.987Z,36.25
2023-03-06T06:20:56.540Z,26.40
2023-03-06T06:22:59.114Z,39.60
2023-03-06T06:25:01.689Z,35.97
2023-03-06T06:27:04.966Z,29.30
2023-03-06T06:29:07.615Z,35.13
2023-03-06T06:31:12.074Z,28.83
2023-03-06T06:33:16.004Z,35.38
2023-03-06T06:35:19.135Z,31.20
2023-03-06T06:37:21.698Z,31.83
2023-03-06T06:39:25.616Z,31.45
2023-03-06T06:41:46.568Z,31.05
2023-03-06T06:43:51.357Z,27.70
2023-03-06T06:45:59.684Z,33.05
2023-03-06T06:48:08.238Z,32.40
2023-03-06T06:50:14.383Z,33.53
2023-03-06T06:52:18.595Z,30.67
2023-03-06T06:54:22.279Z,32.55
2023-03-06T06:56:24.913Z,33.85
2023-03-06T06:58:27.687Z,34.95
2023-03-06T07:00:30.579Z,27.95
2023-03-06T07:02:33.178Z,26.83
2023-03-06T07:04:35.740Z,29.30
2023-03-06T07:06:39.632Z,29.58
2023-03-06T07:08:42.186Z,29.67
2023-03-06T07:10:44.724Z,28.55
2023-03-06T07:12:47.243Z,28.50
2023-03-06T07:14:49.831Z,38.05
2023-03-06T07:16:52.393Z,35.83
2023-03-06T07:18:54.968Z,31.67
2023-03-06T07:21:01.047Z,33.83
2023-03-06T07:23:05.334Z,29.70
2023-03-06T07:25:08.535Z,30.05
2023-03-06T07:27:11.146Z,33.00
2023-03-06T07:29:13.718Z,29.77
2023-03-06T07:31:16.507Z,27.42
2023-03-06T07:33:19.066Z,31.42
2023-03-06T07:35:21.898Z,34.60
2023-03-06T07:37:24.444Z,37.25
2023-03-06T07:39:30.015Z,29.08
2023-03-06T07:41:32.565Z,28.42
2023-03-06T07:43:35.098Z,26.00
2023-03-06T07:45:37.705Z,28.95
2023-03-06T07:47:41.188Z,35.63
2023-03-06T07:49:43.718Z,31.85
2023-03-06T07:51:46.269Z,28.55
2023-03-06T07:53:51.350Z,39.60
2023-03-06T07:55:55.667Z,33.95
2023-03-06T07:57:58.222Z,29.85
2023-03-06T08:00:00.776Z,29.67
2023-03-06T08:02:03.517Z,31.17
2023-03-06T08:04:06.280Z,33.67
2023-03-06T08:06:11.221Z,30.33
2023-03-06T08:08:13.791Z,33.75
2023-03-06T08:10:17.306Z,31.85
2023-03-06T08:12:24.000Z,30.75
2023-03-06T08:14:26.553Z,31.23
2023-03-06T08:16:30.984Z,32.13
2023-03-06T08:18:34.111Z,27.35
2023-03-06T08:20:36.708Z,33.25
2023-03-06T08:22:39.470Z,31.00
2023-03-06T08:24:42.438Z,31.83
2023-03-06T08:26:46.265Z,29.60
2023-03-06T08:28:51.963Z,31.13
2023-03-06T08:30:54.558Z,30.17
2023-03-06T08:32:57.191Z,29.73
2023-03-06T08:34:59.714Z,32.45
2023-03-06T08:37:02.274Z,30.33
2023-03-06T08:39:05.762Z,31.73
2023-03-06T08:41:08.405Z,31.75
2023-03-06T08:43:14.001Z,31.95
2023-03-06T08:45:18.142Z,30.33
2023-03-06T08:47:21.416Z,31.20
2023-03-06T08:49:24.020Z,33.70
2023-03-06T08:51:27.925Z,46.25
2023-03-06T08:53:42.722Z,28.70
2023-03-06T08:55:46.396Z,31.73
2023-03-06T08:57:48.949Z,31.13
2023-03-06T08:59:51.474Z,35.30
2023-03-06T09:01:55.531Z,28.23
2023-03-06T09:04:00.392Z,27.13
2023-03-06T09:06:02.944Z,30.23
2023-03-06T09:08:05.516Z,32.05
2023-03-06T09:10:09.367Z,27.38
2023-03-06T09:12:12.004Z,29.42
2023-03-06T09:14:15.337Z,33.10
2023-03-06T09:16:17.967Z,31.83
2023-03-06T09:18:21.936Z,34.67
2023-03-06T09:20:24.528Z,30.63
2023-03-06T09:22:27.193Z,30.95
2023-03-06T09:24:29.736Z,24.00
2023-03-06T09:26:44.998Z,30.42
2023-03-06T09:28:48.392Z,29.42
2023-03-06T09:30:51.208Z,26.30
2023-03-06T09:32:53.782Z,28.70
2023-03-06T09:34:57.659Z,23.95
2023-03-06T09:37:00.201Z,25.95
2023-03-06T09:39:02.786Z,24.80
2023-03-06T09:41:15.684Z,27.63
2023-03-06T09:43:26.794Z,28.15
2023-03-06T09:45:30.816Z,27.02
2023-03-06T09:47:41.739Z,26.30
2023-03-06T09:49:57.387Z,31.37
2023-03-06T09:52:11.638Z,26.60
2023-03-06T09:54:15.709Z,29.25
2023-03-06T09:56:23.023Z,23.80
2023-03-06T09:58:28.077Z,24.85
2023-03-06T10:00:36.012Z,27.40
2023-03-06T10:02:42.676Z,26.48
2023-03-06T10:04:51.073Z,28.58
2023-03-06T10:06:59.596Z,26.60
2023-03-06T10:09:08.180Z,31.23
2023-03-06T10:11:14.207Z,25.65
2023-03-06T10:13:21.737Z,25.45
2023-03-06T10:15:28.459Z,27.75
2023-03-06T10:17:36.639Z,30.95
2023-03-06T10:19:40.495Z,22.73
2023-03-06T10:21:54.217Z,21.58
2023-03-06T10:24:03.177Z,25.08
2023-03-06T10:26:16.550Z,23.25
2023-03-06T10:28:22.100Z,26.02
2023-03-06T10:30:33.616Z,23.83
2023-03-06T10:32:49.473Z,23.63
2023-03-06T10:34:53.015Z,26.58
2023-03-06T10:36:55.652Z,22.52
2023-03-06T10:38:59.764Z,25.90
2023-03-06T10:41:09.747Z,25.40
2023-03-06T10:43:12.832Z,23.23
2023-03-06T10:45:17.200Z,27.77
2023-03-06T10:47:30.130Z,24.98
2023-03-06T10:49:34.909Z,27.10
2023-03-06T10:51:38.061Z,30.65
2023-03-06T10:53:50.270Z,27.80
2023-03-06T10:55:56.518Z,26.15
2023-03-06T10:58:18.346Z,26.05
2023-03-06T11:00:30.120Z,21.77
2023-03-06T11:04:47.153Z,24.65
2023-03-06T11:07:04.883Z,28.35
2023-03-06T11:09:24.189Z,23.05
2023-03-06T11:11:37.132Z,24.80
2023-03-06T11:13:43.939Z,24.52
2023-03-06T11:15:57.160Z,27.63
2023-03-06T11:18:03.551Z,25.60
2023-03-06T11:20:19.088Z,27.35
2023-03-06T11:22:21.680Z,28.70
2023-03-06T11:24:24.248Z,25.42
2023-03-06T11:26:42.415Z,24.52
2023-03-06T11:28:49.540Z,27.02
2023-03-06T11:30:55.457Z,26.67
2023-03-06T11:33:02.832Z,30.45
2023-03-06T11:35:10.653Z,22.38
2023-03-06T11:37:21.719Z,25.13
2023-03-06T11:39:35.280Z,26.60
2023-03-06T11:41:49.776Z,24.25
2023-03-06T11:44:01.811Z,21.23
2023-03-06T11:46:11.715Z,23.90
2023-03-06T11:48:28.422Z,21.60
2023-03-06T11:50:35.570Z,24.13
2023-03-06T11:52:46.756Z,23.02
2023-03-06T11:54:54.940Z,21.65
2023-03-06T11:57:00.571Z,21.95
2023-03-06T11:59:19.533Z,20.85
2023-03-06T12:01:28.092Z,22.67
2023-03-06T12:04:13.712Z,21.90
2023-03-06T12:06:27.561Z,17.67
2023-03-06T12:08:44.045Z,16.05
2023-03-06T12:10:51.790Z,15.68
2023-03-06T12:13:11.746Z,15.95
2023-03-06T12:15:30.513Z,16.30
2023-03-06T12:17:50.905Z,14.75
2023-03-06T12:20:17.171Z,17.77
2023-03-06T12:22:32.362Z,19.00
2023-03-06T12:24:55.089Z,17.23
2023-03-06T12:27:14.234Z,16.08
2023-03-06T12:29:41.261Z,17.10
2023-03-06T12:31:58.182Z,18.65
2023-03-06T12:34:15.226Z,15.10
2023-03-06T12:36:39.750Z,19.10
2023-03-06T12:39:02.572Z,20.17
2023-03-06T12:41:16.581Z,17.98
2023-03-06T12:43:41.262Z,18.83
2023-03-06T12:45:44.230Z,16.95
2023-03-06T12:47:51.127Z,16.05
2023-03-06T12:49:57.257Z,15.73
2023-03-06T12:52:00.926Z,15.23
2023-03-06T12:54:04.567Z,16.30
2023-03-06T12:56:08.358Z,16.33
2023-03-06T12:58:35.973Z,16.40
2023-03-06T13:01:04.261Z,15.40
2023-03-06T13:03:16.616Z,17.85
2023-03-06T13:05:34.102Z,16.58
2023-03-06T13:07:49.051Z,14.95
2023-03-06T13:10:10.300Z,21.80
2023-03-06T13:12:25.717Z,15.45
2023-03-06T13:14:54.962Z,19.58
2023-03-06T13:17:28.139Z,15.65
2023-03-06T13:19:30.718Z,13.63
2023-03-06T13:22:01.772Z,16.02
2023-03-06T13:24:06.128Z,18.63
2023-03-06T13:26:11.686Z,18.40
2023-03-06T13:28:25.229Z,18.88
2023-03-06T13:30:45.649Z,17.48
2023-03-06T13:32:52.611Z,14.68
2023-03-06T13:34:55.139Z,17.65
2023-03-06T13:37:42.781Z,17.17
2023-03-06T13:40:26.730Z,19.27
2023-03-06T13:42:32.108Z,16.17
2023-03-06T13:44:42.759Z,16.52
2023-03-06T13:46:58.398Z,17.95
2023-03-06T13:49:15.777Z,14.95
2023-03-06T13:51:28.197Z,17.35
2023-03-06T13:54:04.169Z,16.15
2023-03-06T13:56:23.087Z,18.10
2023-03-06T13:58:43.193Z,20.90
2023-03-06T14:01:20.124Z,19.35
2023-03-06T14:03:47.524Z,17.00
2023-03-06T14:05:52.665Z,19.98
2023-03-06T14:08:09.499Z,17.65
2023-03-06T14:10:24.035Z,15.95
2023-03-06T14:12:32.578Z,21.50
2023-03-06T14:14:40.374Z,15.27
2023-03-06T14:16:50.752Z,14.95
2023-03-06T14:18:56.663Z,17.15
2023-03-06T14:21:02.402Z,13.68
2023-03-06T14:23:25.845Z,14.55
2023-03-06T14:25:32.249Z,16.10
2023-03-06T14:27:45.144Z,14.85
2023-03-06T14:29:48.682Z,12.82
2023-03-06T14:31:52.698Z,16.80
2023-03-06T14:33:58.402Z,17.55
2023-03-06T14:36:07.218Z,15.05
2023-03-06T14:38:16.196Z,16.25
2023-03-06T14:40:21.882Z,16.17
2023-03-06T14:42:26.364Z,17.40
2023-03-06T14:44:29.751Z,17.83
2023-03-06T14:46:32.285Z,15.80
2023-03-06T14:48:40.980Z,12.63
2023-03-06T14:50:49.289Z,13.18
2023-03-06T14:52:56.377Z,14.38
2023-03-06T14:54:58.943Z,16.20
2023-03-06T14:57:05.855Z,14.13
2023-03-06T14:59:13.476Z,16.92
2023-03-06T15:01:17.036Z,14.90
2023-03-06T15:03:25.168Z,16.08
2023-03-06T15:05:30.736Z,14.05
2023-03-06T15:07:35.245Z,14.52
2023-03-06T15:09:43.226Z,16.17
2023-03-06T15:11:56.280Z,16.70
2023-03-06T15:14:03.527Z,14.35
2023-03-06T15:16:09.871Z,15.40
2023-03-06T15:18:33.749Z,12.60
2023-03-06T15:20:45.691Z,15.88
2023-03-06T15:22:51.741Z,17.67
2023-03-06T15:25:08.656Z,18.02
2023-03-06T15:27:18.636Z,14.50
2023-03-06T15:29:23.737Z,13.98
2023-03-06T15:31:33.048Z,15.45
2023-03-06T15:33:36.049Z,17.80
2023-03-06T15:35:39.199Z,14.32
2023-03-06T15:37:41.761Z,16.52
2023-03-06T15:39:44.364Z,15.50
2023-03-06T15:41:48.724Z,14.82
2023-03-06T15:43:51.841Z,14.57
2023-03-06T15:45:59.769Z,14.60
2023-03-06T15:48:02.732Z,14.20
2023-03-06T15:50:14.087Z,17.23
2023-03-06T15:52:16.650Z,15.30
2023-03-06T15:54:19.418Z,16.27
2023-03-06T15:56:28.649Z,12.60
2023-03-06T15:58:34.737Z,13.85
2023-03-06T16:00:38.960Z,16.35
2023-03-06T16:02:41.489Z,13.95
2023-03-06T16:04:44.338Z,14.48
2023-03-06T16:06:47.062Z,17.05
2023-03-06T16:08:53.098Z,15.57
2023-03-06T16:10:55.676Z,13.23
2023-03-06T16:13:03.349Z,20.00
2023-03-06T16:15:17.868Z,17.80
2023-03-06T16:17:20.473Z,15.18
2023-03-06T16:19:28.050Z,16.58
2023-03-06T16:21:30.682Z,17.27
2023-03-06T16:23:33.246Z,15.43
2023-03-06T16:25:35.960Z,17.10
2023-03-06T16:27:38.724Z,17.15
2023-03-06T16:29:41.275Z,15.43
2023-03-06T16:31:45.500Z,15.65
2023-03-06T16:33:48.051Z,18.48
2023-03-06T16:35:50.736Z,31.77
2023-03-06T16:37:53.316Z,16.98
2023-03-06T16:39:55.860Z,14.77
2023-03-06T16:41:58.384Z,17.05
2023-03-06T16:44:00.969Z,16.27
2023-03-06T16:46:06.662Z,15.88
2023-03-06T16:48:15.032Z,14.80
2023-03-06T16:50:24.359Z,17.00
2023-03-06T16:52:26.921Z,16.35
2023-03-06T16:54:29.580Z,18.95
2023-03-06T16:56:32.223Z,19.13
2023-03-06T16:58:34.888Z,26.10
2023-03-06T17:00:37.475Z,19.83
2023-03-06T17:02:40.625Z,17.60
2023-03-06T17:04:44.557Z,18.98
2023-03-06T17:06:47.119Z,18.48
2023-03-06T17:08:50.874Z,21.00
2023-03-06T17:10:53.466Z,19.25
2023-03-06T17:12:56.862Z,20.35
2023-03-06T17:14:59.455Z,21.30
2023-03-06T17:17:01.976Z,19.65
2023-03-06T17:19:04.541Z,22.75
2023-03-06T17:21:08.821Z,19.05
2023-03-06T17:23:11.369Z,20.55
2023-03-06T17:25:13.911Z,23.08
2023-03-06T17:27:16.880Z,18.35
2023-03-06T17:29:19.417Z,20.13
2023-03-06T17:31:23.771Z,23.38
2023-03-06T17:33:26.334Z,20.98
2023-03-06T17:35:28.922Z,23.70
2023-03-06T17:37:33.891Z,23.30
2023-03-06T17:39:38.715Z,19.20
2023-03-06T17:41:41.253Z,22.92
2023-03-06T17:43:43.960Z,22.25
2023-03-06T17:45:47.334Z,20.85
2023-03-06T17:47:54.130Z,20.23
2023-03-06T17:49:56.675Z,22.83
2023-03-06T17:52:02.775Z,20.15
2023-03-06T17:54:06.748Z,20.20
2023-03-06T17:56:12.466Z,21.05
2023-03-06T17:58:15.104Z,20.10
2023-03-06T18:00:18.732Z,21.45
2023-03-06T18:02:21.327Z,20.35
2023-03-06T18:04:24.120Z,29.63
2023-03-06T18:06:30.040Z,20.98
2023-03-06T18:08:32.754Z,19.08
2023-03-06T18:10:40.005Z,20.02
2023-03-06T18:12:42.548Z,19.48
2023-03-06T18:14:45.236Z,21.90
2023-03-06T18:16:47.896Z,19.10
2023-03-06T18:18:52.820Z,22.58
2023-03-06T18:20:55.939Z,23.23
2023-03-06T18:23:03.258Z,19.40
2023-03-06T18:25:06.473Z,21.77
2023-03-06T18:27:10.372Z,22.55
2023-03-06T18:29:12.931Z,22.52
2023-03-06T18:31:16.777Z,24.98
2023-03-06T18:33:19.338Z,24.25
2023-03-06T18:35:22.131Z,22.20
2023-03-06T18:37:24.747Z,24.30
2023-03-06T18:39:27.317Z,25.20
2023-03-06T18:41:30.462Z,25.98
2023-03-06T18:43:34.358Z,23.15
2023-03-06T18:45:36.932Z,23.73
2023-03-06T18:47:39.556Z,29.13
2023-03-06T18:49:44.192Z,21.30
2023-03-06T18:51:48.124Z,24.48
2023-03-06T18:53:50.736Z,22.17
2023-03-06T18:55:54.585Z,22.38
2023-03-06T18:57:57.961Z,24.92
2023-03-06T19:00:01.891Z,22.65
2023-03-06T19:02:04.799Z,29.50
2023-03-06T19:04:07.440Z,27.50
2023-03-06T19:06:12.039Z,23.13
2023-03-06T19:08:15.677Z,23.20
2023-03-06T19:10:19.902Z,26.38
2023-03-06T19:12:23.397Z,23.05
2023-03-06T19:14:26.102Z,20.83
2023-03-06T19:16:33.832Z,24.67
2023-03-06T19:18:36.912Z,21.42
2023-03-06T19:20:39.602Z,23.35
2023-03-06T19:22:42.195Z,23.33
2023-03-06T19:24:46.761Z,26.00
2023-03-06T19:26:49.358Z,24.77
2023-03-06T19:28:52.893Z,23.80
2023-03-06T19:30:55.425Z,22.17
2023-03-06T19:32:59.318Z,21.58
2023-03-06T19:35:01.922Z,19.65
2023-03-06T19:37:04.490Z,21.60
2023-03-06T19:39:08.007Z,23.70
2023-03-06T19:41:13.454Z,24.90
2023-03-06T19:43:16.046Z,23.52
2023-03-06T19:45:21.671Z,26.48
2023-03-06T19:47:24.242Z,22.73
2023-03-06T19:49:28.133Z,23.90
2023-03-06T19:51:30.882Z,21.42
2023-03-06T19:53:33.777Z,23.58
2023-03-06T19:55:36.294Z,28.98
2023-03-06T19:57:38.835Z,24.65
2023-03-06T19:59:41.379Z,23.77
2023-03-06T20:01:43.952Z,23.95
2023-03-06T20:03:46.700Z,22.73
2023-03-06T20:05:50.584Z,23.42
2023-03-06T20:07:53.263Z,24.40
2023-03-06T20:10:00.231Z,22.90
2023-03-06T20:12:02.964Z,21.52
2023-03-06T20:14:07.948Z,22.80
2023-03-06T20:16:10.589Z,23.92
2023-03-06T20:18:13.742Z,21.52
2023-03-06T20:20:16.384Z,23.20
2023-03-06T20:22:20.259Z,21.95
2023-03-06T20:24:22.820Z,24.80
2023-03-06T20:26:26.241Z,25.98
2023-03-06T20:28:28.774Z,22.60
2023-03-06T20:30:38.139Z,22.48
2023-03-06T20:32:41.126Z,23.60
2023-03-06T20:34:44.499Z,27.48
2023-03-06T20:36:47.268Z,27.92
2023-03-06T20:38:51.605Z,26.75
2023-03-06T20:40:55.751Z,29.92
2023-03-06T20:42:58.286Z,28.27
2023-03-06T20:45:00.826Z,25.00
2023-03-06T20:47:03.339Z,27.52
2023-03-06T20:49:06.008Z,26.35
2023-03-06T20:51:10.933Z,25.50
2023-03-06T20:53:13.458Z,26.35
2023-03-06T20:55:17.557Z,26.27
2023-03-06T20:57:20.136Z,25.67
2023-03-06T20:59:23.650Z,28.75
2023-03-06T21:01:27.611Z,25.73
2023-03-06T21:03:30.245Z,28.35
2023-03-06T21:05:32.811Z,25.05
2023-03-06T21:07:35.893Z,26.83
2023-03-06T21:09:39.617Z,28.42
2023-03-06T21:11:43.589Z,28.83
2023-03-06T21:13:46.150Z,26.40
2023-03-06T21:15:48.760Z,27.00
2023-03-06T21:17:51.316Z,32.35
2023-03-06T21:19:53.847Z,24.77
2023-03-06T21:21:56.368Z,23.63
2023-03-06T21:23:58.972Z,26.35
2023-03-06T21:26:01.708Z,28.00
2023-03-06T21:28:05.768Z,24.17
2023-03-06T21:30:09.947Z,21.83
2023-03-06T21:32:12.534Z,25.58
2023-03-06T21:34:15.116Z,23.83
2023-03-06T21:36:18.430Z,25.90
2023-03-06T21:38:21.033Z,23.27
2023-03-06T21:40:23.721Z,25.33
2023-03-06T21:42:26.306Z,25.02
2023-03-06T21:44:30.184Z,28.10
2023-03-06T21:46:33.045Z,28.70
2023-03-06T21:48:35.581Z,20.73
2023-03-06T21:50:38.134Z,22.05
2023-03-06T21:52:40.898Z,21.05
2023-03-06T21:54:43.454Z,21.08
2023-03-06T21:56:45.992Z,23.83
2023-03-06T21:58:48.674Z,23.60
2023-03-06T22:00:52.568Z,22.95
2023-03-06T22:02:55.141Z,24.13
2023-03-06T22:04:57.675Z,29.13
2023-03-06T22:07:00.209Z,23.80
2023-03-06T22:09:04.169Z,21.42
2023-03-06T22:11:08.323Z,28.17
2023-03-06T22:13:10.863Z,25.00
2023-03-06T22:15:13.413Z,24.65
2023-03-06T22:17:17.329Z,21.95
2023-03-06T22:19:19.874Z,24.80
2023-03-06T22:21:24.251Z,25.02
2023-03-06T22:23:27.186Z,27.05
2023-03-06T22:25:31.229Z,22.55
2023-03-06T22:27:33.813Z,20.27
2023-03-06T22:29:36.475Z,25.33
2023-03-06T22:31:40.369Z,21.65
2023-03-06T22:33:44.930Z,24.92
2023-03-06T22:35:47.524Z,23.45
2023-03-06T22:37:50.089Z,23.80
2023-03-06T22:39:52.612Z,31.10
2023-03-06T22:41:56.197Z,27.38
2023-03-06T22:43:59.669Z,26.85
2023-03-06T22:46:03.380Z,26.20
2023-03-06T22:48:11.105Z,26.92
2023-03-06T22:50:15.340Z,24.00
2023-03-06T22:52:19.476Z,23.35
2023-03-06T22:54:22.038Z,21.92
2023-03-06T22:56:25.358Z,25.77
2023-03-06T22:58:28.337Z,26.15
2023-03-06T23:00:30.883Z,20.52
2023-03-06T23:02:34.924Z,26.13
2023-03-06T23:04:37.606Z,26.52
2023-03-06T23:06:42.880Z,26.58
2023-03-06T23:08:49.567Z,23.17
2023-03-06T23:10:52.117Z,23.13
2023-03-06T23:12:54.662Z,22.70
2023-03-06T23:14:57.211Z,25.17
2023-03-06T23:16:59.809Z,24.25
2023-03-06T23:19:02.327Z,21.23
2023-03-06T23:21:07.780Z,24.10
2023-03-06T23:23:11.789Z,24.08
2023-03-06T23:25:16.836Z,22.80
2023-03-06T23:27:19.575Z,23.83
2023-03-06T23:29:22.390Z,25.08
2023-03-06T23:31:29.874Z,23.35
2023-03-06T23:33:34.545Z,25.52
2023-03-06T23:35:38.913Z,22.83
2023-03-06T23:37:41.491Z,24.77
2023-03-06T23:39:45.381Z,22.65
2023-03-06T23:41:47.957Z,24.35
2023-03-06T23:43:53.457Z,23.60
2023-03-06T23:45:58.096Z,23.23
2023-03-06T23:48:00.651Z,23.10
2023-03-06T23:50:03.241Z,20.55
2023-03-06T23:52:06.068Z,24.40
2023-03-06T23:54:10.916Z,21.90
2023-03-06T23:56:15.364Z,23.45
2023-03-06T23:58:19.258Z,23.50
